Time;durP1;ratioP1;P1;durP2;ratioP2;P2;SDS_P1;SDS_P2;PMS_P1;PMS_P2;Temp;Humidity;BMP_temperature;BMP_pressure;BME280_temperature;BME280_humidity;BME280_pressure;Samples;Min_cycle;Max_cycle;Signal;HPM_P1;HPM_P2
2023/06/11 00:01:15;;;;;;;5.20;2.50;;;;;;;23.43;61.71;96093.88;5036400;28;20049;-28
2023/06/11 00:03:42;;;;;;;5.95;2.85;;;;;;;23.63;61.30;96095.41;5036161;28;20025;-30
2023/06/11 00:06:07;;;;;;;4.88;3.42;;;;;;;23.56;62.02;96088.47;5036390;28;20373;-29
2023/06/11 00:08:33;;;;;;;5.25;2.78;;;;;;;23.66;62.02;96085.31;5035991;28;20028;-30
2023/06/11 00:10:59;;;;;;;6.00;3.28;;;;;;;23.55;62.52;96089.72;5035635;28;20025;-29
2023/06/11 00:13:26;;;;;;;8.93;3.63;;;;;;;23.57;62.64;96086.44;5036536;28;20022;-28
2023/06/11 00:15:52;;;;;;;9.75;3.30;;;;;;;23.79;61.97;96085.41;5035862;28;20372;-29
2023/06/11 00:18:17;;;;;;;5.35;2.97;;;;;;;23.66;62.63;96088.09;5036041;28;20079;-28
2023/06/11 00:20:43;;;;;;;5.95;3.00;;;;;;;23.83;61.94;96091.41;5035280;28;20018;-28
2023/06/11 00:23:09;;;;;;;7.43;3.20;;;;;;;23.83;61.91;96083.88;5035392;28;20356;-31
2023/06/11 00:25:35;;;;;;;7.00;3.00;;;;;;;23.69;62.38;96087.81;5037595;28;20033;-28
2023/06/11 00:28:00;;;;;;;5.75;2.70;;;;;;;23.56;62.78;96080.16;5040620;28;20021;-28
2023/06/11 00:30:26;;;;;;;4.75;2.80;;;;;;;23.45;63.18;96088.56;5035341;28;20040;-28
2023/06/11 00:32:51;;;;;;;5.22;2.95;;;;;;;23.49;63.27;96088.28;5034724;28;20033;-28
2023/06/11 00:35:17;;;;;;;9.85;3.72;;;;;;;23.38;63.41;96080.06;5042632;28;20059;-28
2023/06/11 00:37:54;;;;;;;8.18;3.72;;;;;;;23.42;63.00;96083.31;5042761;28;20511;-30
2023/06/11 00:40:20;;;;;;;6.00;2.70;;;;;;;23.45;63.03;96088.56;5035180;28;20124;-28
2023/06/11 00:42:49;;;;;;;5.32;3.35;;;;;;;23.58;62.06;96085.94;5034817;28;20116;-30
2023/06/11 00:45:14;;;;;;;4.45;2.83;;;;;;;23.54;62.18;96087.47;5035422;28;20033;-28
2023/06/11 00:47:40;;;;;;;6.78;3.05;;;;;;;23.53;62.19;96091.53;5041277;28;20476;-29
2023/06/11 00:50:08;;;;;;;4.97;3.20;;;;;;;23.55;62.01;96088.97;5038346;28;20037;-28
2023/06/11 00:52:34;;;;;;;4.63;2.72;;;;;;;23.62;61.57;96082.84;5038358;28;20025;-29
2023/06/11 00:54:59;;;;;;;7.20;3.00;;;;;;;23.54;62.05;96076.41;5035439;28;20116;-28
2023/06/11 00:57:25;;;;;;;4.10;3.22;;;;;;;23.49;62.07;96077.22;5035209;28;20043;-28
2023/06/11 00:59:55;;;;;;;5.60;3.00;;;;;;;23.69;61.48;96079.50;5035178;28;20583;-28
2023/06/11 01:02:39;;;;;;;7.63;3.58;;;;;;;23.63;61.73;96089.88;5031841;28;20019;-29
2023/06/11 01:05:07;;;;;;;3.85;2.95;;;;;;;23.53;61.62;96086.72;5043545;28;20021;-28
2023/06/11 01:07:35;;;;;;;5.18;2.50;;;;;;;23.43;62.46;96085.56;5038776;28;20016;-30
2023/06/11 01:10:02;;;;;;;4.53;2.50;;;;;;;23.25;62.59;96083.47;5037576;28;20552;-28
2023/06/11 01:12:27;;;;;;;4.95;2.53;;;;;;;23.40;62.26;96086.59;5027496;28;20087;-28
2023/06/11 01:14:53;;;;;;;2.55;2.22;;;;;;;23.17;63.10;96079.81;5034841;28;20469;-29
2023/06/11 01:18:00;;;;;;;5.38;2.40;;;;;;;23.27;62.91;96084.47;5041730;28;20029;-29
2023/06/11 01:20:39;;;;;;;5.15;2.60;;;;;;;23.44;62.14;96080.78;5032365;28;20041;-30
2023/06/11 01:23:41;;;;;;;7.07;2.90;;;;;;;23.43;62.14;96077.25;5033293;28;20040;-29
2023/06/11 01:26:31;;;;;;;7.15;3.33;;;;;;;23.43;62.25;96082.78;5030835;28;20033;-28
2023/06/11 01:28:59;;;;;;;4.10;2.47;;;;;;;23.35;62.45;96076.34;5028959;28;20022;-28
2023/06/11 01:31:29;;;;;;;6.28;2.40;;;;;;;23.48;61.92;96070.19;5041658;28;20100;-29
2023/06/11 01:33:56;;;;;;;5.47;3.05;;;;;;;23.54;61.72;96073.63;5041656;28;20024;-29
2023/06/11 01:36:24;;;;;;;4.80;2.95;;;;;;;23.37;61.89;96067.53;5033818;28;20029;-28
2023/06/11 01:38:51;;;;;;;2.70;2.25;;;;;;;23.46;61.91;96064.41;5041341;28;20025;-29
2023/06/11 01:41:17;;;;;;;4.18;2.70;;;;;;;23.51;61.00;96067.13;5034292;28;20021;-29
2023/06/11 01:43:42;;;;;;;6.50;3.15;;;;;;;23.45;61.60;96065.69;5042371;28;20074;-28
2023/06/11 01:46:08;;;;;;;4.85;2.65;;;;;;;23.54;61.53;96054.28;5044459;28;20029;-29
2023/06/11 01:48:33;;;;;;;5.93;3.15;;;;;;;23.52;61.45;96062.34;5036868;28;20029;-29
2023/06/11 01:50:59;;;;;;;5.57;2.53;;;;;;;23.48;61.37;96059.09;5034402;28;20421;-28
2023/06/11 01:53:25;;;;;;;5.32;2.60;;;;;;;23.45;61.31;96060.13;5034356;28;20027;-28
2023/06/11 01:55:50;;;;;;;5.22;2.40;;;;;;;23.45;61.07;96060.88;5034280;28;20076;-28
2023/06/11 01:58:19;;;;;;;7.00;2.65;;;;;;;23.47;61.13;96061.13;5040687;28;20159;-28
2023/06/11 02:00:47;;;;;;;6.10;2.20;;;;;;;23.59;60.70;96050.69;5041329;28;20387;-29
2023/06/11 02:03:16;;;;;;;3.92;2.30;;;;;;;23.54;60.75;96059.81;5041380;28;20040;-28
2023/06/11 02:05:43;;;;;;;5.53;2.30;;;;;;;23.50;60.92;96054.56;5033827;28;20025;-28
2023/06/11 02:08:09;;;;;;;6.80;2.70;;;;;;;23.45;61.29;96065.69;5040687;28;20394;-28
2023/06/11 02:10:35;;;;;;;4.85;2.95;;;;;;;23.43;60.94;96054.38;5033791;28;20448;-29
2023/06/11 02:13:00;;;;;;;5.05;2.58;;;;;;;23.47;60.67;96061.13;5040888;28;20041;-29
2023/06/11 02:15:26;;;;;;;5.65;2.80;;;;;;;23.38;60.63;96055.16;5040805;28;20530;-28
2023/06/11 02:17:51;;;;;;;6.90;2.22;;;;;;;23.32;61.14;96060.78;5033631;28;20108;-29
2023/06/11 02:20:17;;;;;;;6.82;2.63;;;;;;;23.02;61.85;96057.31;5033788;28;20029;-29
2023/06/11 02:22:43;;;;;;;4.90;2.38;;;;;;;23.33;61.36;96056.75;5034120;28;20465;-29
2023/06/11 02:25:08;;;;;;;5.88;2.22;;;;;;;23.30;61.27;96057.78;5033640;28;20380;-29
2023/06/11 02:27:34;;;;;;;6.57;2.50;;;;;;;23.34;61.00;96057.50;5034326;28;20496;-29
2023/06/11 02:29:59;;;;;;;6.13;2.38;;;;;;;23.26;60.75;96057.31;5033644;28;20032;-28
2023/06/11 02:32:25;;;;;;;5.20;2.50;;;;;;;23.27;60.95;96056.06;5033660;28;20030;-28
2023/06/11 02:34:51;;;;;;;4.32;2.55;;;;;;;23.24;61.23;96055.06;5033861;28;20464;-30
2023/06/11 02:37:16;;;;;;;5.93;2.83;;;;;;;23.06;61.59;96053.00;5040305;28;20036;-28
2023/06/11 02:39:42;;;;;;;4.28;2.10;;;;;;;23.22;61.45;96054.13;5040519;28;20022;-28
2023/06/11 02:42:08;;;;;;;9.63;3.58;;;;;;;23.07;61.20;96060.03;5039164;28;20067;-29
2023/06/11 02:44:34;;;;;;;5.07;2.30;;;;;;;23.19;60.93;96064.19;5040679;28;20021;-28
2023/06/11 02:47:00;;;;;;;3.97;2.40;;;;;;;23.08;61.51;96058.78;5031394;28;20021;-29
2023/06/11 02:49:25;;;;;;;3.00;2.40;;;;;;;23.06;61.22;96058.53;5039446;28;20024;-28
2023/06/11 02:51:51;;;;;;;4.38;1.95;;;;;;;23.07;61.59;96060.03;5035556;28;20034;-29
2023/06/11 02:54:16;;;;;;;7.93;2.30;;;;;;;23.19;61.13;96057.91;5040565;28;20108;-28
2023/06/11 02:56:42;;;;;;;4.85;2.55;;;;;;;23.17;61.27;96054.91;5037202;28;20041;-29
2023/06/11 02:59:07;;;;;;;14.63;3.08;;;;;;;23.05;61.17;96057.03;5037754;28;20111;-28
2023/06/11 03:01:33;;;;;;;4.63;2.60;;;;;;;23.15;61.35;96052.66;5037341;28;20029;-28
2023/06/11 03:03:58;;;;;;;4.32;2.33;;;;;;;23.15;61.17;96052.66;5037190;28;20024;-28
2023/06/11 03:06:24;;;;;;;5.15;2.30;;;;;;;23.16;61.04;96053.41;5044478;28;20025;-29
2023/06/11 03:08:49;;;;;;;5.25;2.67;;;;;;;23.12;61.63;96050.91;5044156;28;20028;-28
2023/06/11 03:11:15;;;;;;;4.78;2.60;;;;;;;23.33;60.59;96042.91;5037355;28;20029;-28
2023/06/11 03:13:41;;;;;;;3.75;2.72;;;;;;;23.17;61.12;96043.84;5037174;28;20461;-28
2023/06/11 03:16:06;;;;;;;4.30;2.40;;;;;;;23.13;61.29;96044.13;5044633;28;20021;-29
2023/06/11 03:18:32;;;;;;;5.18;2.38;;;;;;;22.97;61.81;96036.75;5039881;28;20380;-29
2023/06/11 03:20:57;;;;;;;5.32;2.78;;;;;;;23.22;60.95;96038.25;5041364;28;20026;-28
2023/06/11 03:23:22;;;;;;;5.82;2.60;;;;;;;23.12;60.96;96037.09;5036895;28;20061;-28
2023/06/11 03:25:48;;;;;;;2.63;2.20;;;;;;;23.12;60.71;96037.09;5040710;28;20104;-29
2023/06/11 03:28:13;;;;;;;3.95;2.63;;;;;;;23.18;60.82;96037.78;5039688;28;20067;-28
2023/06/11 03:30:39;;;;;;;4.60;2.17;;;;;;;23.22;60.76;96041.03;5037224;28;20028;-29
2023/06/11 03:33:04;;;;;;;4.43;2.22;;;;;;;23.03;61.41;96045.75;5043418;28;20025;-28
2023/06/11 03:35:30;;;;;;;4.93;2.40;;;;;;;23.23;60.50;96050.06;5036987;28;20026;-29
2023/06/11 03:37:55;;;;;;;3.85;2.28;;;;;;;23.05;61.20;96048.00;5036682;28;20060;-28
2023/06/11 03:40:20;;;;;;;7.43;2.70;;;;;;;23.14;61.12;96042.84;5036561;28;20079;-28
2023/06/11 03:42:46;;;;;;;5.72;2.40;;;;;;;23.14;60.89;96051.16;5043647;28;20018;-28
2023/06/11 03:45:11;;;;;;;7.07;2.85;;;;;;;23.19;60.79;96052.38;5048417;28;20495;-28
2023/06/11 03:47:37;;;;;;;5.30;2.67;;;;;;;23.20;60.80;96051.84;5038750;28;20123;-29
2023/06/11 03:50:04;;;;;;;4.07;2.40;;;;;;;23.11;61.00;96049.44;5036841;28;20024;-28
2023/06/11 03:52:30;;;;;;;5.30;2.75;;;;;;;23.05;61.11;96048.75;5036366;28;20167;-28
2023/06/11 03:54:56;;;;;;;8.10;2.90;;;;;;;23.19;60.81;96055.16;5037825;28;20092;-28
2023/06/11 03:57:22;;;;;;;7.47;2.53;;;;;;;23.24;60.70;96059.88;5041995;28;20052;-30
2023/06/11 03:59:47;;;;;;;6.65;2.80;;;;;;;23.26;60.28;96054.56;5043224;28;20029;-29
2023/06/11 04:02:13;;;;;;;6.57;2.72;;;;;;;23.11;60.88;96052.22;5039263;28;20039;-29
2023/06/11 04:04:38;;;;;;;3.63;2.55;;;;;;;23.05;61.04;96056.28;5040627;28;20017;-30
2023/06/11 04:07:05;;;;;;;4.57;2.70;;;;;;;23.27;60.53;96051.28;5035449;28;20104;-28
2023/06/11 04:09:31;;;;;;;6.10;3.33;;;;;;;23.26;60.67;96051.78;5049605;28;20013;-28
2023/06/11 04:11:56;;;;;;;7.60;2.70;;;;;;;23.22;60.64;96062.41;5042601;28;20475;-29
2023/06/11 04:14:22;;;;;;;6.78;2.58;;;;;;;23.21;60.83;96050.59;5036060;28;20056;-29
2023/06/11 04:16:48;;;;;;;4.13;2.15;;;;;;;23.29;60.68;96056.28;5035550;28;20053;-29
2023/06/11 04:19:13;;;;;;;7.80;2.97;;;;;;;23.05;61.17;96051.50;5036133;28;20033;-28
2023/06/11 04:21:39;;;;;;;4.93;2.65;;;;;;;23.07;61.41;96057.28;5035705;28;20028;-29
2023/06/11 04:24:05;;;;;;;5.93;2.45;;;;;;;23.26;60.57;96047.00;5035568;28;20018;-29
2023/06/11 04:26:31;;;;;;;5.97;3.30;;;;;;;23.21;60.94;96042.28;5050447;28;20539;-28
2023/06/11 04:28:57;;;;;;;6.10;2.97;;;;;;;23.22;60.97;96046.56;5042974;28;20029;-29
2023/06/11 04:31:26;;;;;;;6.47;2.70;;;;;;;22.97;61.65;96044.31;5035712;28;20075;-29
2023/06/11 04:33:55;;;;;;;5.28;2.45;;;;;;;23.11;61.39;96041.16;5035597;28;20029;-28
2023/06/11 04:36:24;;;;;;;5.82;3.20;;;;;;;23.17;61.02;96044.59;5035482;28;20076;-29
2023/06/11 04:38:51;;;;;;;7.82;2.85;;;;;;;23.15;61.30;96049.13;5038199;28;20384;-28
2023/06/11 04:41:17;;;;;;;5.28;2.50;;;;;;;23.27;61.08;96044.97;5035332;28;20026;-29
2023/06/11 04:43:45;;;;;;;6.10;2.60;;;;;;;23.36;60.68;96049.44;5036569;28;20029;-28
2023/06/11 04:46:11;;;;;;;6.43;2.95;;;;;;;23.27;60.85;96042.97;5041241;28;20128;-29
2023/06/11 04:48:37;;;;;;;5.88;2.60;;;;;;;23.29;61.18;96050.75;5034999;28;20536;-28
2023/06/11 04:51:04;;;;;;;4.82;2.60;;;;;;;23.27;61.38;96047.75;5036579;28;20039;-29
2023/06/11 04:53:30;;;;;;;3.50;2.50;;;;;;;23.29;61.34;96050.75;5039321;28;20079;-28
2023/06/11 04:55:58;;;;;;;4.47;2.38;;;;;;;23.21;61.13;96047.06;5035074;28;20128;-28
2023/06/11 04:58:27;;;;;;;4.18;2.33;;;;;;;23.31;61.33;96048.22;5034982;28;20087;-28
2023/06/11 05:00:57;;;;;;;5.22;2.50;;;;;;;23.24;61.41;96054.34;5035094;28;20083;-28
2023/06/11 05:03:24;;;;;;;6.32;3.13;;;;;;;23.37;60.92;96048.16;5035503;28;20045;-29
2023/06/11 05:05:51;;;;;;;7.28;3.30;;;;;;;23.45;61.06;96058.13;5041910;28;20025;-30
2023/06/11 05:08:25;;;;;;;7.15;3.13;;;;;;;23.31;61.23;96053.00;5049135;28;20024;-28
2023/06/11 05:10:54;;;;;;;7.78;3.83;;;;;;;23.25;61.88;96053.06;5033553;28;20018;-28
2023/06/11 05:13:24;;;;;;;4.95;3.03;;;;;;;23.26;61.61;96049.75;5034992;28;20426;-28
2023/06/11 05:15:54;;;;;;;4.82;2.63;;;;;;;23.22;61.79;96046.56;5041713;28;20079;-29
2023/06/11 05:18:20;;;;;;;5.72;3.10;;;;;;;23.25;61.75;96045.50;5041612;28;20492;-29
2023/06/11 05:20:48;;;;;;;7.43;2.85;;;;;;;23.24;61.60;96044.00;5034771;28;20083;-28
2023/06/11 05:23:14;;;;;;;8.65;2.88;;;;;;;23.35;61.69;96043.16;5034670;28;20039;-29
2023/06/11 05:25:46;;;;;;;6.72;2.85;;;;;;;23.27;62.03;96042.97;5030342;28;20028;-29
2023/06/11 05:28:12;;;;;;;4.43;3.13;;;;;;;23.36;61.55;96046.66;5044847;28;20085;-29
2023/06/11 05:30:38;;;;;;;6.45;2.72;;;;;;;23.33;62.26;96044.94;5036723;28;20048;-29
2023/06/11 05:33:05;;;;;;;7.95;3.67;;;;;;;23.23;62.02;96048.06;5039367;28;20026;-29
2023/06/11 05:35:31;;;;;;;6.55;3.42;;;;;;;23.26;62.19;96040.72;5034529;28;20032;-30
2023/06/11 05:37:57;;;;;;;6.32;3.65;;;;;;;23.11;62.64;96046.69;5034092;28;20021;-28
2023/06/11 05:40:23;;;;;;;7.38;3.35;;;;;;;23.37;61.96;96042.63;5034068;28;20531;-28
2023/06/11 05:42:49;;;;;;;5.55;3.22;;;;;;;23.38;62.24;96046.88;5034506;28;20025;-28
2023/06/11 05:45:15;;;;;;;5.50;3.08;;;;;;;23.25;62.55;96051.03;5041335;28;20485;-29
2023/06/11 05:47:40;;;;;;;6.07;3.30;;;;;;;23.32;62.27;96054.50;5042035;28;20025;-29
2023/06/11 05:50:06;;;;;;;6.00;2.90;;;;;;;23.38;62.36;96044.09;5034073;28;20389;-30
2023/06/11 05:52:31;;;;;;;8.38;3.20;;;;;;;23.32;62.56;96044.19;5033917;28;20485;-29
2023/06/11 05:54:57;;;;;;;5.45;3.20;;;;;;;23.36;62.66;96057.72;5034559;28;20368;-28
2023/06/11 05:57:24;;;;;;;5.85;2.78;;;;;;;23.54;61.88;96057.03;5038270;28;20403;-28
2023/06/11 05:59:50;;;;;;;5.97;2.80;;;;;;;23.43;62.22;96051.59;5036558;28;20022;-28
2023/06/11 06:02:16;;;;;;;6.78;3.10;;;;;;;23.50;62.07;96053.78;5044272;28;20053;-28
2023/06/11 06:04:41;;;;;;;5.90;2.63;;;;;;;23.36;62.07;96050.19;5038406;28;20060;-28
2023/06/11 06:07:07;;;;;;;4.20;2.92;;;;;;;23.37;62.64;96048.16;5034689;28;20421;-27
2023/06/11 06:09:33;;;;;;;5.07;2.65;;;;;;;23.38;62.79;96050.38;5040194;28;20025;-28
2023/06/11 06:12:00;;;;;;;6.13;2.95;;;;;;;23.43;62.65;96054.38;5040505;28;20029;-29
2023/06/11 06:14:25;;;;;;;5.55;2.50;;;;;;;23.47;62.23;96060.38;5041320;28;20029;-28
2023/06/11 06:16:51;;;;;;;7.85;2.75;;;;;;;23.56;61.88;96062.81;5033792;28;20189;-28
2023/06/11 06:19:16;;;;;;;10.57;3.47;;;;;;;23.52;61.96;96068.63;5033842;28;20025;-28
2023/06/11 06:21:42;;;;;;;10.57;2.92;;;;;;;23.60;61.77;96066.03;5033637;28;20029;-29
2023/06/11 06:24:07;;;;;;;7.75;3.22;;;;;;;23.59;61.31;96070.81;5033882;28;20029;-29
2023/06/11 06:26:33;;;;;;;9.38;3.10;;;;;;;23.50;62.01;96075.91;5034832;28;20515;-28
2023/06/11 06:28:59;;;;;;;6.88;3.15;;;;;;;23.52;62.16;96076.94;5033098;28;20021;-28
2023/06/11 06:31:25;;;;;;;4.20;2.80;;;;;;;23.42;62.22;96070.22;5033867;28;20026;-28
2023/06/11 06:33:51;;;;;;;5.93;2.90;;;;;;;23.48;62.10;96070.19;5033535;28;20041;-28
2023/06/11 06:36:19;;;;;;;4.07;2.75;;;;;;;23.49;62.32;96074.44;5033444;28;20022;-28
2023/06/11 06:38:45;;;;;;;9.98;3.00;;;;;;;23.39;62.75;96078.81;5033717;28;20048;-28
2023/06/11 06:41:11;;;;;;;8.25;3.17;;;;;;;23.60;61.92;96080.63;5040918;28;20025;-28
2023/06/11 06:43:37;;;;;;;10.30;2.85;;;;;;;23.60;61.99;96079.88;5041142;28;20032;-29
2023/06/11 06:46:02;;;;;;;8.52;2.70;;;;;;;23.34;63.16;96091.47;5040890;28;20342;-28
2023/06/11 06:48:28;;;;;;;5.95;3.10;;;;;;;23.54;62.46;96098.56;5033033;28;20518;-30
2023/06/11 06:50:53;;;;;;;7.25;3.65;;;;;;;23.57;61.87;96091.97;5034749;28;20029;-28
2023/06/11 06:53:19;;;;;;;7.15;3.28;;;;;;;23.66;61.49;96091.63;5038221;28;20380;-28
2023/06/11 06:55:44;;;;;;;8.63;3.50;;;;;;;23.57;61.51;96098.28;5034625;28;20493;-29
2023/06/11 06:58:10;;;;;;;7.20;3.40;;;;;;;23.59;61.61;96090.19;5039478;28;20025;-28
2023/06/11 07:00:36;;;;;;;7.75;3.17;;;;;;;23.66;61.85;96088.84;5033280;28;20473;-29
2023/06/11 07:03:01;;;;;;;6.80;3.60;;;;;;;23.67;61.33;96090.34;5033406;28;20025;-29
2023/06/11 07:05:27;;;;;;;4.75;3.17;;;;;;;23.55;62.34;96091.75;5033097;28;20025;-29
2023/06/11 07:07:53;;;;;;;5.20;2.80;;;;;;;23.55;61.81;96097.28;5045538;28;20021;-28
2023/06/11 07:10:19;;;;;;;6.70;2.80;;;;;;;23.63;61.47;96098.19;5041136;28;20353;-28
2023/06/11 07:12:44;;;;;;;4.55;2.78;;;;;;;23.67;61.53;96090.34;5033113;28;20032;-28
2023/06/11 07:15:10;;;;;;;4.80;2.47;;;;;;;23.76;60.62;96086.47;5032081;28;20018;-28
2023/06/11 07:17:36;;;;;;;3.58;2.40;;;;;;;23.64;61.10;96092.13;5033444;28;20033;-29
2023/06/11 07:20:04;;;;;;;6.32;2.80;;;;;;;23.66;60.87;96099.16;5040295;28;20021;-29
2023/06/11 07:22:30;;;;;;;4.80;2.60;;;;;;;23.59;61.02;96094.97;5035292;28;20040;-28
2023/06/11 07:24:56;;;;;;;6.63;2.70;;;;;;;23.70;60.61;96089.31;5038233;28;20025;-29
2023/06/11 07:27:22;;;;;;;6.90;2.70;;;;;;;23.82;60.47;96093.44;5040438;28;20388;-28
2023/06/11 07:29:47;;;;;;;5.00;2.88;;;;;;;23.58;60.76;96090.72;5033183;28;20488;-29
2023/06/11 07:32:13;;;;;;;7.20;2.72;;;;;;;23.75;60.65;96084.97;5032887;28;20480;-29
2023/06/11 07:34:39;;;;;;;7.57;2.97;;;;;;;23.69;61.25;96103.66;5033259;28;20029;-29
2023/06/11 07:37:05;;;;;;;4.60;2.80;;;;;;;23.78;60.50;96095.75;5040363;28;20372;-28
2023/06/11 07:39:31;;;;;;;3.83;2.70;;;;;;;23.74;61.24;96083.50;5031797;28;20025;-29
2023/06/11 07:41:57;;;;;;;4.78;2.58;;;;;;;23.72;60.84;96088.78;5036261;28;20072;-29
2023/06/11 07:44:22;;;;;;;5.28;2.90;;;;;;;23.97;60.42;96087.47;5042957;28;20021;-28
2023/06/11 07:46:47;;;;;;;6.35;2.47;;;;;;;23.96;60.34;96097.78;5037482;28;20083;-30
2023/06/11 07:49:13;;;;;;;7.35;2.80;;;;;;;23.82;60.69;96089.91;5036488;28;20025;-30
2023/06/11 07:51:38;;;;;;;3.58;2.35;;;;;;;23.79;60.86;96091.72;5036365;28;20021;-29
2023/06/11 07:54:05;;;;;;;4.10;2.42;;;;;;;23.85;60.43;96095.19;5042381;28;20036;-28
2023/06/11 07:56:31;;;;;;;6.40;2.60;;;;;;;23.83;60.64;96094.94;5036195;28;20052;-29
2023/06/11 07:58:57;;;;;;;6.95;3.33;;;;;;;23.79;60.83;96085.41;5036290;28;20045;-29
2023/06/11 08:01:22;;;;;;;4.65;2.42;;;;;;;23.89;60.99;96095.59;5036364;28;20021;-28
2023/06/11 08:03:47;;;;;;;5.00;2.60;;;;;;;23.90;60.79;96088.03;5043080;28;20017;-29
2023/06/11 08:06:13;;;;;;;5.20;2.60;;;;;;;23.92;60.14;96091.03;5043374;28;20425;-28
2023/06/11 08:08:38;;;;;;;3.72;2.40;;;;;;;23.99;59.98;96082.88;5042622;28;20017;-29
2023/06/11 08:11:04;;;;;;;5.13;3.10;;;;;;;23.97;60.48;96084.69;5036573;28;20021;-28
2023/06/11 08:13:30;;;;;;;7.22;2.35;;;;;;;23.91;60.29;96087.53;5035988;28;20022;-29
2023/06/11 08:15:56;;;;;;;5.07;2.50;;;;;;;24.10;59.68;96081.25;5042564;28;20071;-29
2023/06/11 08:18:21;;;;;;;5.72;2.70;;;;;;;24.00;59.84;96087.16;5034730;28;20389;-28
2023/06/11 08:20:47;;;;;;;6.63;2.78;;;;;;;24.04;59.57;96092.41;5036067;28;20025;-28
2023/06/11 08:23:12;;;;;;;7.47;2.92;;;;;;;23.91;60.07;96086.78;5034182;28;20033;-29
2023/06/11 08:25:39;;;;;;;5.05;2.70;;;;;;;24.02;59.68;96094.19;5038964;28;20027;-29
2023/06/11 08:28:05;;;;;;;5.30;2.78;;;;;;;24.07;59.39;96087.84;5040257;28;20513;-29
2023/06/11 08:30:30;;;;;;;4.75;3.17;;;;;;;24.04;59.97;96077.78;5035594;28;20074;-29
2023/06/11 08:32:56;;;;;;;2.70;2.10;;;;;;;24.00;60.26;96084.38;5042553;28;20053;-29
2023/06/11 08:35:21;;;;;;;6.10;2.38;;;;;;;24.15;59.62;96081.16;5035383;28;20033;-29
2023/06/11 08:37:47;;;;;;;3.42;2.40;;;;;;;24.06;60.32;96080.78;5036113;28;20094;-31
2023/06/11 08:40:13;;;;;;;4.30;2.67;;;;;;;24.12;60.33;96084.22;5035509;28;20031;-29
2023/06/11 08:42:38;;;;;;;7.40;2.67;;;;;;;24.19;59.61;96076.06;5035369;28;20112;-29
2023/06/11 08:45:04;;;;;;;3.67;2.00;;;;;;;24.17;59.56;96075.84;5046198;28;20039;-29
2023/06/11 08:47:33;;;;;;;5.43;2.45;;;;;;;24.22;59.24;96077.06;5038819;28;20025;-29
2023/06/11 08:49:59;;;;;;;3.65;2.50;;;;;;;24.12;60.08;96078.69;5037626;28;20020;-29
2023/06/11 08:52:30;;;;;;;3.47;2.40;;;;;;;24.13;59.81;96075.38;5034933;28;20401;-29
2023/06/11 08:54:55;;;;;;;6.63;2.45;;;;;;;24.13;59.95;96074.63;5035395;28;20484;-30
2023/06/11 08:57:21;;;;;;;5.30;2.25;;;;;;;24.17;60.44;96081.38;5035090;28;20049;-29
2023/06/11 08:59:47;;;;;;;4.05;2.30;;;;;;;24.05;60.98;96079.28;5042217;28;20075;-29
2023/06/11 09:02:12;;;;;;;6.15;2.30;;;;;;;24.18;60.40;96084.91;5048975;28;20979;-29
2023/06/11 09:04:41;;;;;;;4.20;2.90;;;;;;;24.07;60.84;96079.53;5034987;28;20017;-29
2023/06/11 09:07:07;;;;;;;4.78;2.17;;;;;;;24.06;60.75;96087.09;5035605;28;20018;-29
2023/06/11 09:09:32;;;;;;;4.65;2.35;;;;;;;24.17;59.93;96084.16;5041284;28;20044;-29
2023/06/11 09:11:58;;;;;;;3.38;2.03;;;;;;;24.10;60.53;96086.78;5041402;28;20025;-29
2023/06/11 09:14:23;;;;;;;4.38;2.33;;;;;;;24.03;60.57;96090.16;5036337;28;20045;-29
2023/06/11 09:16:49;;;;;;;4.63;2.30;;;;;;;24.28;59.51;96083.28;5039819;28;20017;-30
2023/06/11 09:19:19;;;;;;;2.88;2.20;;;;;;;24.20;59.58;96083.13;5034958;28;20033;-30
2023/06/11 09:21:51;;;;;;;2.65;1.95;;;;;;;24.13;60.12;96083.69;5035050;28;20525;-30
2023/06/11 09:24:21;;;;;;;6.60;2.42;;;;;;;24.23;59.85;96089.66;5034926;28;20034;-29
2023/06/11 09:26:54;;;;;;;4.35;2.35;;;;;;;24.40;58.94;96092.94;5042043;28;20094;-29
2023/06/11 09:29:24;;;;;;;3.72;2.10;;;;;;;24.20;59.44;96091.44;5041698;28;20021;-29
2023/06/11 09:32:11;;;;;;;3.30;2.70;;;;;;;24.29;59.24;96082.00;5034762;28;20024;-29
2023/06/11 09:34:36;;;;;;;3.47;1.90;;;;;;;24.28;59.25;96086.78;5034799;28;20036;-29
2023/06/11 09:37:03;;;;;;;7.95;2.88;;;;;;;24.40;59.08;96084.59;5034347;28;20022;-30
2023/06/11 09:39:29;;;;;;;2.75;2.00;;;;;;;24.39;59.22;96088.66;5034213;28;20063;-29
2023/06/11 09:41:55;;;;;;;3.72;2.38;;;;;;;24.14;60.44;96087.22;5041501;28;20472;-29
2023/06/11 09:44:21;;;;;;;4.63;2.30;;;;;;;24.28;59.56;96083.28;5034379;28;20076;-29
2023/06/11 09:46:48;;;;;;;5.60;2.60;;;;;;;24.33;59.27;96083.22;5034176;28;20080;-30
2023/06/11 09:49:15;;;;;;;6.78;2.40;;;;;;;24.24;59.75;96078.03;5038144;28;20021;-29
2023/06/11 09:51:41;;;;;;;3.10;2.40;;;;;;;24.38;59.29;96078.84;5036343;28;20021;-30
2023/06/11 09:54:10;;;;;;;3.70;2.33;;;;;;;24.33;59.74;96076.91;5037090;28;20448;-30
2023/06/11 09:56:37;;;;;;;3.30;2.50;;;;;;;24.33;59.66;96082.47;5037590;28;20050;-32
2023/06/11 09:59:03;;;;;;;5.10;3.15;;;;;;;24.33;59.51;96085.22;5041180;28;20543;-30
2023/06/11 10:01:30;;;;;;;4.13;2.60;;;;;;;24.29;59.47;96082.00;5034130;28;20048;-29
2023/06/11 10:03:56;;;;;;;5.10;2.20;;;;;;;24.40;58.94;96090.16;5032168;28;20361;-29
2023/06/11 10:06:26;;;;;;;5.55;2.20;;;;;;;24.35;59.01;96079.91;5033885;28;20045;-30
2023/06/11 10:08:55;;;;;;;4.05;2.15;;;;;;;24.43;58.60;96080.78;5041207;28;20354;-29
2023/06/11 10:11:23;;;;;;;4.13;2.08;;;;;;;24.25;59.65;96092.63;5041408;28;20028;-30
2023/06/11 10:13:59;;;;;;;4.07;2.30;;;;;;;24.28;60.08;96086.03;5033834;28;20029;-30
2023/06/11 10:16:26;;;;;;;4.45;2.08;;;;;;;24.20;59.74;96087.91;5041317;28;20029;-31
2023/06/11 10:19:02;;;;;;;4.05;2.38;;;;;;;24.34;59.99;96084.72;5033848;28;20408;-29
2023/06/11 10:21:34;;;;;;;4.18;2.63;;;;;;;24.25;60.37;96084.31;5041240;28;20028;-29
2023/06/11 10:23:59;;;;;;;3.33;2.45;;;;;;;24.27;60.71;96076.97;5039752;28;20476;-30
2023/06/11 10:26:33;;;;;;;3.60;2.28;;;;;;;24.22;59.91;96085.38;5042518;28;20036;-29
2023/06/11 10:28:58;;;;;;;4.75;2.03;;;;;;;24.19;60.50;96076.06;5033322;28;20029;-30
2023/06/11 10:31:25;;;;;;;6.13;2.08;;;;;;;24.26;60.84;96081.03;5033791;28;20025;-29
2023/06/11 10:33:51;;;;;;;4.15;2.35;;;;;;;24.25;60.88;96078.78;5033572;28;20022;-30
2023/06/11 10:36:27;;;;;;;3.15;2.10;;;;;;;24.34;60.78;96076.41;5033971;28;20092;-29
2023/06/11 10:39:10;;;;;;;6.10;2.63;;;;;;;24.39;60.49;96090.69;5040640;28;20025;-29
2023/06/11 10:41:37;;;;;;;3.78;2.20;;;;;;;24.37;60.76;96076.59;5040483;28;20071;-29
2023/06/11 10:44:03;;;;;;;2.95;2.17;;;;;;;24.49;60.31;96072.38;5037356;28;20032;-29
2023/06/11 10:46:29;;;;;;;3.60;2.10;;;;;;;24.38;60.48;96076.06;5036940;28;20026;-29
2023/06/11 10:48:54;;;;;;;4.75;2.20;;;;;;;24.38;60.58;96073.28;5035163;28;20481;-30
2023/06/11 10:51:21;;;;;;;4.65;1.90;;;;;;;24.40;60.55;96079.06;5045959;28;20029;-29
2023/06/11 10:53:54;;;;;;;3.97;2.15;;;;;;;24.37;60.50;96077.34;5040798;28;20021;-29
2023/06/11 10:56:24;;;;;;;2.95;2.10;;;;;;;24.37;60.13;96080.13;5033099;28;20045;-31
2023/06/11 10:58:51;;;;;;;3.53;2.13;;;;;;;24.46;59.56;96074.19;5031612;28;20018;-29
2023/06/11 11:01:20;;;;;;;5.28;2.20;;;;;;;24.43;59.50;96080.78;5026173;28;20040;-30
2023/06/11 11:03:48;;;;;;;4.05;2.25;;;;;;;24.52;58.95;96071.31;5040140;28;20017;-28
2023/06/11 11:06:24;;;;;;;3.78;2.47;;;;;;;24.48;58.96;96073.69;5035717;28;20535;-29
2023/06/11 11:08:51;;;;;;;3.17;2.58;;;;;;;24.44;59.18;96073.22;5044233;28;20017;-29
2023/06/11 11:11:17;;;;;;;2.97;2.30;;;;;;;24.44;59.26;96079.50;5033369;28;20026;-29
2023/06/11 11:13:43;;;;;;;3.65;2.47;;;;;;;24.41;59.43;96066.72;5032581;28;20025;-30
2023/06/11 11:16:08;;;;;;;3.60;2.30;;;;;;;24.42;59.18;96064.69;5035394;28;20025;-29
2023/06/11 11:18:34;;;;;;;3.75;2.10;;;;;;;24.43;59.48;96053.06;5037276;28;20071;-29
2023/06/11 11:21:00;;;;;;;3.67;2.10;;;;;;;24.41;59.47;96066.72;5043949;28;20021;-29
2023/06/11 11:23:26;;;;;;;2.83;1.95;;;;;;;24.48;59.06;96063.31;5037391;28;20427;-29
2023/06/11 11:25:51;;;;;;;3.60;2.17;;;;;;;24.60;58.65;96061.84;5036733;28;20026;-29
2023/06/11 11:28:17;;;;;;;6.00;2.30;;;;;;;24.53;58.64;96067.28;5036529;28;20040;-29
2023/06/11 11:30:43;;;;;;;3.58;1.73;;;;;;;24.32;59.08;96064.34;5037041;28;20024;-29
2023/06/11 11:33:10;;;;;;;3.53;2.08;;;;;;;24.40;58.66;96061.69;5042732;28;20025;-29